sensor_id;sensor_type;location;lat;lon;timestamp;temperature;humidity
73955;DHT22;62306;52.516;13.290;2022-11-18T00:01:45;2.90;90.30
73955;DHT22;62306;52.516;13.290;2022-11-18T00:04:12;3.00;90.30
73955;DHT22;62306;52.516;13.290;2022-11-18T00:06:40;3.00;91.50
73955;DHT22;62306;52.516;13.290;2022-11-18T00:09:07;3.50;94.90
73955;DHT22;62306;52.516;13.290;2022-11-18T00:11:34;3.70;91.40
73955;DHT22;62306;52.516;13.290;2022-11-18T00:14:21;3.70;91.50
73955;DHT22;62306;52.516;13.290;2022-11-18T00:16:51;4.00;91.50
73955;DHT22;62306;52.516;13.290;2022-11-18T00:19:19;4.10;88.90
73955;DHT22;62306;52.516;13.290;2022-11-18T00:21:48;4.10;90.40
73955;DHT22;62306;52.516;13.290;2022-11-18T00:24:15;4.00;88.40
73955;DHT22;62306;52.516;13.290;2022-11-18T00:26:42;4.00;89.30
73955;DHT22;62306;52.516;13.290;2022-11-18T00:29:09;3.90;87.20
73955;DHT22;62306;52.516;13.290;2022-11-18T00:31:37;3.80;90.10
73955;DHT22;62306;52.516;13.290;2022-11-18T00:34:04;3.70;90.20
73955;DHT22;62306;52.516;13.290;2022-11-18T00:36:31;3.70;88.60
73955;DHT22;62306;52.516;13.290;2022-11-18T00:38:59;3.60;89.40
73955;DHT22;62306;52.516;13.290;2022-11-18T00:41:26;3.50;89.60
73955;DHT22;62306;52.516;13.290;2022-11-18T00:44:14;3.40;89.70
73955;DHT22;62306;52.516;13.290;2022-11-18T00:46:40;3.50;89.70
73955;DHT22;62306;52.516;13.290;2022-11-18T00:49:07;3.60;88.70
73955;DHT22;62306;52.516;13.290;2022-11-18T00:51:34;3.70;88.30
73955;DHT22;62306;52.516;13.290;2022-11-18T00:54:02;3.80;87.40
73955;DHT22;62306;52.516;13.290;2022-11-18T00:56:29;3.80;87.40
73955;DHT22;62306;52.516;13.290;2022-11-18T00:58:56;3.40;85.00
73955;DHT22;62306;52.516;13.290;2022-11-18T01:01:23;3.20;85.50
73955;DHT22;62306;52.516;13.290;2022-11-18T01:03:50;2.90;87.20
73955;DHT22;62306;52.516;13.290;2022-11-18T01:06:17;2.80;88.30
73955;DHT22;62306;52.516;13.290;2022-11-18T01:08:44;2.60;88.50
73955;DHT22;62306;52.516;13.290;2022-11-18T01:11:13;2.60;88.30
73955;DHT22;62306;52.516;13.290;2022-11-18T01:13:57;2.60;88.50
73955;DHT22;62306;52.516;13.290;2022-11-18T01:16:25;2.60;88.10
73955;DHT22;62306;52.516;13.290;2022-11-18T01:18:54;2.60;88.10
73955;DHT22;62306;52.516;13.290;2022-11-18T01:21:21;2.60;88.00
73955;DHT22;62306;52.516;13.290;2022-11-18T01:23:48;2.70;87.50
73955;DHT22;62306;52.516;13.290;2022-11-18T01:26:17;2.60;87.50
73955;DHT22;62306;52.516;13.290;2022-11-18T01:28:43;2.50;87.80
73955;DHT22;62306;52.516;13.290;2022-11-18T01:31:12;2.60;87.70
73955;DHT22;62306;52.516;13.290;2022-11-18T01:33:39;2.60;87.50
73955;DHT22;62306;52.516;13.290;2022-11-18T01:36:14;2.60;87.90
73955;DHT22;62306;52.516;13.290;2022-11-18T01:38:42;2.50;87.50
73955;DHT22;62306;52.516;13.290;2022-11-18T01:41:09;2.60;87.40
73955;DHT22;62306;52.516;13.290;2022-11-18T01:43:50;2.60;87.10
73955;DHT22;62306;52.516;13.290;2022-11-18T01:46:18;2.60;86.30
73955;DHT22;62306;52.516;13.290;2022-11-18T01:48:48;2.60;86.80
73955;DHT22;62306;52.516;13.290;2022-11-18T01:51:18;2.50;86.90
73955;DHT22;62306;52.516;13.290;2022-11-18T01:53:48;2.50;87.10
73955;DHT22;62306;52.516;13.290;2022-11-18T01:56:23;2.40;86.70
73955;DHT22;62306;52.516;13.290;2022-11-18T01:58:54;2.30;86.50
73955;DHT22;62306;52.516;13.290;2022-11-18T02:01:22;2.20;87.50
73955;DHT22;62306;52.516;13.290;2022-11-18T02:03:49;2.30;87.50
73955;DHT22;62306;52.516;13.290;2022-11-18T02:06:17;2.30;87.30
73955;DHT22;62306;52.516;13.290;2022-11-18T02:08:44;2.20;87.00
73955;DHT22;62306;52.516;13.290;2022-11-18T02:11:13;2.20;87.50
73955;DHT22;62306;52.516;13.290;2022-11-18T02:13:56;2.20;87.50
73955;DHT22;62306;52.516;13.290;2022-11-18T02:16:27;2.20;87.60
73955;DHT22;62306;52.516;13.290;2022-11-18T02:18:59;2.30;87.60
73955;DHT22;62306;52.516;13.290;2022-11-18T02:21:32;2.20;87.20
73955;DHT22;62306;52.516;13.290;2022-11-18T02:24:25;2.20;87.60
73955;DHT22;62306;52.516;13.290;2022-11-18T02:27:12;2.10;88.10
73955;DHT22;62306;52.516;13.290;2022-11-18T02:29:48;2.10;88.20
73955;DHT22;62306;52.516;13.290;2022-11-18T02:32:22;2.00;88.60
73955;DHT22;62306;52.516;13.290;2022-11-18T02:34:54;2.00;88.70
73955;DHT22;62306;52.516;13.290;2022-11-18T02:37:30;2.00;88.60
73955;DHT22;62306;52.516;13.290;2022-11-18T02:40:02;1.90;89.00
73955;DHT22;62306;52.516;13.290;2022-11-18T02:42:33;1.90;89.20
73955;DHT22;62306;52.516;13.290;2022-11-18T02:45:05;2.00;89.20
73955;DHT22;62306;52.516;13.290;2022-11-18T02:47:34;2.00;88.70
73955;DHT22;62306;52.516;13.290;2022-11-18T02:50:04;2.00;88.30
73955;DHT22;62306;52.516;13.290;2022-11-18T02:52:34;1.90;88.40
73955;DHT22;62306;52.516;13.290;2022-11-18T02:55:02;2.00;88.20
73955;DHT22;62306;52.516;13.290;2022-11-18T02:57:31;1.90;88.20
73955;DHT22;62306;52.516;13.290;2022-11-18T02:59:59;1.90;88.80
73955;DHT22;62306;52.516;13.290;2022-11-18T03:02:38;1.90;87.70
73955;DHT22;62306;52.516;13.290;2022-11-18T03:05:06;1.90;87.90
73955;DHT22;62306;52.516;13.290;2022-11-18T03:07:37;1.90;88.00
73955;DHT22;62306;52.516;13.290;2022-11-18T03:10:06;1.70;88.40
73955;DHT22;62306;52.516;13.290;2022-11-18T03:12:38;1.80;88.10
73955;DHT22;62306;52.516;13.290;2022-11-18T03:15:15;1.80;88.10
73955;DHT22;62306;52.516;13.290;2022-11-18T03:17:52;1.70;88.10
73955;DHT22;62306;52.516;13.290;2022-11-18T03:20:24;1.80;88.30
73955;DHT22;62306;52.516;13.290;2022-11-18T03:22:55;1.80;88.10
73955;DHT22;62306;52.516;13.290;2022-11-18T03:25:29;1.80;87.80
73955;DHT22;62306;52.516;13.290;2022-11-18T03:28:02;1.80;88.10
73955;DHT22;62306;52.516;13.290;2022-11-18T03:30:33;1.90;88.30
73955;DHT22;62306;52.516;13.290;2022-11-18T03:33:05;1.90;88.20
73955;DHT22;62306;52.516;13.290;2022-11-18T03:35:37;1.80;89.00
73955;DHT22;62306;52.516;13.290;2022-11-18T03:38:07;1.80;89.90
73955;DHT22;62306;52.516;13.290;2022-11-18T03:40:37;1.60;90.30
73955;DHT22;62306;52.516;13.290;2022-11-18T03:43:09;1.50;90.50
73955;DHT22;62306;52.516;13.290;2022-11-18T03:45:41;1.50;90.70
73955;DHT22;62306;52.516;13.290;2022-11-18T03:48:14;1.50;90.90
73955;DHT22;62306;52.516;13.290;2022-11-18T03:50:44;1.50;90.80
73955;DHT22;62306;52.516;13.290;2022-11-18T03:53:13;1.40;91.00
73955;DHT22;62306;52.516;13.290;2022-11-18T03:55:43;1.50;91.20
73955;DHT22;62306;52.516;13.290;2022-11-18T03:58:17;1.30;90.80
73955;DHT22;62306;52.516;13.290;2022-11-18T04:00:47;1.30;91.50
73955;DHT22;62306;52.516;13.290;2022-11-18T04:03:18;1.20;91.30
73955;DHT22;62306;52.516;13.290;2022-11-18T04:05:46;1.30;91.40
73955;DHT22;62306;52.516;13.290;2022-11-18T04:08:22;1.20;91.10
73955;DHT22;62306;52.516;13.290;2022-11-18T04:10:56;1.20;91.10
73955;DHT22;62306;52.516;13.290;2022-11-18T04:13:27;1.20;91.20
73955;DHT22;62306;52.516;13.290;2022-11-18T04:15:55;1.20;90.90
73955;DHT22;62306;52.516;13.290;2022-11-18T04:18:23;1.30;90.90
73955;DHT22;62306;52.516;13.290;2022-11-18T04:20:53;1.20;90.90
73955;DHT22;62306;52.516;13.290;2022-11-18T04:23:20;1.20;91.20
73955;DHT22;62306;52.516;13.290;2022-11-18T04:25:47;1.20;91.30
73955;DHT22;62306;52.516;13.290;2022-11-18T04:28:14;1.30;91.20
73955;DHT22;62306;52.516;13.290;2022-11-18T04:30:41;1.30;91.20
73955;DHT22;62306;52.516;13.290;2022-11-18T04:33:08;1.20;91.60
73955;DHT22;62306;52.516;13.290;2022-11-18T04:35:36;1.20;91.80
73955;DHT22;62306;52.516;13.290;2022-11-18T04:38:03;1.20;91.30
73955;DHT22;62306;52.516;13.290;2022-11-18T04:40:30;1.10;91.80
73955;DHT22;62306;52.516;13.290;2022-11-18T04:42:57;1.10;91.90
73955;DHT22;62306;52.516;13.290;2022-11-18T04:45:23;1.10;92.10
73955;DHT22;62306;52.516;13.290;2022-11-18T04:47:50;1.00;92.20
73955;DHT22;62306;52.516;13.290;2022-11-18T04:50:17;1.10;92.30
73955;DHT22;62306;52.516;13.290;2022-11-18T04:52:45;1.10;92.30
73955;DHT22;62306;52.516;13.290;2022-11-18T04:55:12;1.00;92.30
73955;DHT22;62306;52.516;13.290;2022-11-18T04:57:39;1.00;92.20
73955;DHT22;62306;52.516;13.290;2022-11-18T05:00:07;0.90;92.50
73955;DHT22;62306;52.516;13.290;2022-11-18T05:02:34;1.00;92.60
73955;DHT22;62306;52.516;13.290;2022-11-18T05:05:01;0.90;92.70
73955;DHT22;62306;52.516;13.290;2022-11-18T05:07:28;0.90;92.80
73955;DHT22;62306;52.516;13.290;2022-11-18T05:19:50;0.90;92.00
73955;DHT22;62306;52.516;13.290;2022-11-18T05:22:17;0.80;92.30
73955;DHT22;62306;52.516;13.290;2022-11-18T05:24:44;0.80;92.30
73955;DHT22;62306;52.516;13.290;2022-11-18T05:27:11;0.80;92.20
73955;DHT22;62306;52.516;13.290;2022-11-18T05:29:38;0.70;92.30
73955;DHT22;62306;52.516;13.290;2022-11-18T05:32:05;0.70;92.50
73955;DHT22;62306;52.516;13.290;2022-11-18T05:34:31;0.70;93.00
73955;DHT22;62306;52.516;13.290;2022-11-18T05:37:00;0.60;92.40
73955;DHT22;62306;52.516;13.290;2022-11-18T05:39:27;0.70;91.90
73955;DHT22;62306;52.516;13.290;2022-11-18T05:41:54;0.70;92.00
73955;DHT22;62306;52.516;13.290;2022-11-18T05:44:38;0.60;92.00
73955;DHT22;62306;52.516;13.290;2022-11-18T05:47:05;0.70;91.50
73955;DHT22;62306;52.516;13.290;2022-11-18T05:49:32;0.80;90.70
73955;DHT22;62306;52.516;13.290;2022-11-18T05:52:00;0.80;90.60
73955;DHT22;62306;52.516;13.290;2022-11-18T05:54:27;0.80;90.60
73955;DHT22;62306;52.516;13.290;2022-11-18T05:56:54;0.80;90.60
73955;DHT22;62306;52.516;13.290;2022-11-18T05:59:21;0.80;90.70
73955;DHT22;62306;52.516;13.290;2022-11-18T06:01:50;0.90;90.50
73955;DHT22;62306;52.516;13.290;2022-11-18T06:04:22;0.80;90.10
73955;DHT22;62306;52.516;13.290;2022-11-18T06:06:52;0.80;90.10
73955;DHT22;62306;52.516;13.290;2022-11-18T06:09:25;0.80;90.00
73955;DHT22;62306;52.516;13.290;2022-11-18T06:11:56;0.80;90.50
73955;DHT22;62306;52.516;13.290;2022-11-18T06:14:29;0.80;90.40
73955;DHT22;62306;52.516;13.290;2022-11-18T06:17:00;0.80;90.10
73955;DHT22;62306;52.516;13.290;2022-11-18T06:19:28;0.90;90.00
73955;DHT22;62306;52.516;13.290;2022-11-18T06:21:57;0.90;87.70
73955;DHT22;62306;52.516;13.290;2022-11-18T06:24:26;0.90;88.00
73955;DHT22;62306;52.516;13.290;2022-11-18T06:26:53;0.90;87.80
73955;DHT22;62306;52.516;13.290;2022-11-18T06:29:20;0.80;87.40
73955;DHT22;62306;52.516;13.290;2022-11-18T06:31:47;0.80;87.40
73955;DHT22;62306;52.516;13.290;2022-11-18T06:34:14;0.80;87.80
73955;DHT22;62306;52.516;13.290;2022-11-18T06:36:41;0.90;86.20
73955;DHT22;62306;52.516;13.290;2022-11-18T06:39:08;0.80;85.70
73955;DHT22;62306;52.516;13.290;2022-11-18T06:41:36;0.90;85.90
73955;DHT22;62306;52.516;13.290;2022-11-18T06:44:03;0.90;85.80
73955;DHT22;62306;52.516;13.290;2022-11-18T06:46:29;0.90;84.40
73955;DHT22;62306;52.516;13.290;2022-11-18T06:49:13;0.90;84.30
73955;DHT22;62306;52.516;13.290;2022-11-18T06:51:40;0.90;84.40
73955;DHT22;62306;52.516;13.290;2022-11-18T06:54:07;0.90;84.00
73955;DHT22;62306;52.516;13.290;2022-11-18T06:56:36;0.90;84.50
73955;DHT22;62306;52.516;13.290;2022-11-18T06:59:03;0.90;84.40
73955;DHT22;62306;52.516;13.290;2022-11-18T07:01:32;0.90;84.50
73955;DHT22;62306;52.516;13.290;2022-11-18T07:04:00;1.00;83.00
73955;DHT22;62306;52.516;13.290;2022-11-18T07:06:28;1.00;83.00
73955;DHT22;62306;52.516;13.290;2022-11-18T07:08:56;0.90;83.70
73955;DHT22;62306;52.516;13.290;2022-11-18T07:11:24;0.80;82.30
73955;DHT22;62306;52.516;13.290;2022-11-18T07:13:53;0.70;82.30
73955;DHT22;62306;52.516;13.290;2022-11-18T07:16:21;0.80;81.40
73955;DHT22;62306;52.516;13.290;2022-11-18T07:22:04;0.70;81.20
73955;DHT22;62306;52.516;13.290;2022-11-18T07:24:33;0.60;82.10
73955;DHT22;62306;52.516;13.290;2022-11-18T07:27:01;0.60;82.60
73955;DHT22;62306;52.516;13.290;2022-11-18T07:29:46;0.70;81.90
73955;DHT22;62306;52.516;13.290;2022-11-18T07:32:17;0.70;81.30
73955;DHT22;62306;52.516;13.290;2022-11-18T07:34:49;0.70;81.50
73955;DHT22;62306;52.516;13.290;2022-11-18T07:37:32;0.80;81.30
73955;DHT22;62306;52.516;13.290;2022-11-18T07:43:22;0.80;81.70
73955;DHT22;62306;52.516;13.290;2022-11-18T07:46:11;0.80;82.00
73955;DHT22;62306;52.516;13.290;2022-11-18T07:48:39;0.70;81.80
73955;DHT22;62306;52.516;13.290;2022-11-18T07:51:08;0.90;81.80
73955;DHT22;62306;52.516;13.290;2022-11-18T07:53:36;0.80;80.60
73955;DHT22;62306;52.516;13.290;2022-11-18T07:56:05;0.80;80.60
73955;DHT22;62306;52.516;13.290;2022-11-18T07:58:33;0.80;80.00
73955;DHT22;62306;52.516;13.290;2022-11-18T08:04:33;0.90;79.90
73955;DHT22;62306;52.516;13.290;2022-11-18T08:07:23;0.80;79.00
73955;DHT22;62306;52.516;13.290;2022-11-18T08:10:15;0.90;78.70
73955;DHT22;62306;52.516;13.290;2022-11-18T08:12:46;0.80;79.60
73955;DHT22;62306;52.516;13.290;2022-11-18T08:15:17;0.80;78.80
73955;DHT22;62306;52.516;13.290;2022-11-18T08:17:44;0.80;79.20
73955;DHT22;62306;52.516;13.290;2022-11-18T08:20:15;0.80;79.30
73955;DHT22;62306;52.516;13.290;2022-11-18T08:22:42;0.90;79.00
73955;DHT22;62306;52.516;13.290;2022-11-18T08:25:11;0.90;79.10
73955;DHT22;62306;52.516;13.290;2022-11-18T08:27:42;1.00;79.00
73955;DHT22;62306;52.516;13.290;2022-11-18T08:30:13;0.80;78.60
73955;DHT22;62306;52.516;13.290;2022-11-18T08:32:43;0.60;79.10
73955;DHT22;62306;52.516;13.290;2022-11-18T08:35:11;0.70;79.70
73955;DHT22;62306;52.516;13.290;2022-11-18T08:37:55;0.80;79.80
73955;DHT22;62306;52.516;13.290;2022-11-18T08:40:23;0.70;78.50
73955;DHT22;62306;52.516;13.290;2022-11-18T08:42:56;0.60;78.40
73955;DHT22;62306;52.516;13.290;2022-11-18T08:45:24;0.60;79.10
73955;DHT22;62306;52.516;13.290;2022-11-18T08:47:52;0.70;78.20
73955;DHT22;62306;52.516;13.290;2022-11-18T08:50:22;0.60;79.10
73955;DHT22;62306;52.516;13.290;2022-11-18T08:52:57;0.60;78.30
73955;DHT22;62306;52.516;13.290;2022-11-18T08:55:39;0.50;79.40
73955;DHT22;62306;52.516;13.290;2022-11-18T08:58:06;0.60;79.30
73955;DHT22;62306;52.516;13.290;2022-11-18T09:00:34;0.50;79.40
73955;DHT22;62306;52.516;13.290;2022-11-18T09:03:01;0.40;79.40
73955;DHT22;62306;52.516;13.290;2022-11-18T09:05:29;0.30;79.50
73955;DHT22;62306;52.516;13.290;2022-11-18T09:07:58;0.30;79.60
73955;DHT22;62306;52.516;13.290;2022-11-18T09:10:26;0.40;79.20
73955;DHT22;62306;52.516;13.290;2022-11-18T09:12:53;0.30;79.10
73955;DHT22;62306;52.516;13.290;2022-11-18T09:15:21;0.30;79.30
73955;DHT22;62306;52.516;13.290;2022-11-18T09:18:01;0.30;78.90
73955;DHT22;62306;52.516;13.290;2022-11-18T09:20:31;0.30;79.10
73955;DHT22;62306;52.516;13.290;2022-11-18T09:22:59;0.30;78.90
73955;DHT22;62306;52.516;13.290;2022-11-18T09:25:26;0.20;79.20
73955;DHT22;62306;52.516;13.290;2022-11-18T09:27:53;0.20;79.10
73955;DHT22;62306;52.516;13.290;2022-11-18T09:30:21;0.30;79.70
73955;DHT22;62306;52.516;13.290;2022-11-18T09:32:48;0.30;80.50
73955;DHT22;62306;52.516;13.290;2022-11-18T09:35:15;0.30;80.10
73955;DHT22;62306;52.516;13.290;2022-11-18T09:37:42;0.40;80.40
73955;DHT22;62306;52.516;13.290;2022-11-18T09:40:15;0.30;79.90
73955;DHT22;62306;52.516;13.290;2022-11-18T09:42:53;0.30;79.70
73955;DHT22;62306;52.516;13.290;2022-11-18T09:45:24;0.30;80.30
73955;DHT22;62306;52.516;13.290;2022-11-18T09:47:56;0.40;79.20
73955;DHT22;62306;52.516;13.290;2022-11-18T09:50:24;0.40;79.20
73955;DHT22;62306;52.516;13.290;2022-11-18T09:53:00;0.30;79.90
73955;DHT22;62306;52.516;13.290;2022-11-18T09:55:30;0.40;79.20
73955;DHT22;62306;52.516;13.290;2022-11-18T09:57:58;0.30;79.60
73955;DHT22;62306;52.516;13.290;2022-11-18T10:00:27;0.40;79.70
73955;DHT22;62306;52.516;13.290;2022-11-18T10:02:59;0.40;79.40
73955;DHT22;62306;52.516;13.290;2022-11-18T10:05:28;0.50;79.30
73955;DHT22;62306;52.516;13.290;2022-11-18T10:08:04;0.30;80.40
73955;DHT22;62306;52.516;13.290;2022-11-18T10:10:49;0.20;80.10
73955;DHT22;62306;52.516;13.290;2022-11-18T10:13:26;0.20;80.20
73955;DHT22;62306;52.516;13.290;2022-11-18T10:15:59;0.20;79.10
73955;DHT22;62306;52.516;13.290;2022-11-18T10:18:38;0.20;79.50
73955;DHT22;62306;52.516;13.290;2022-11-18T10:21:34;0.20;78.50
73955;DHT22;62306;52.516;13.290;2022-11-18T10:24:09;0.20;76.70
73955;DHT22;62306;52.516;13.290;2022-11-18T10:26:41;0.30;77.10
73955;DHT22;62306;52.516;13.290;2022-11-18T10:29:19;0.30;77.00
73955;DHT22;62306;52.516;13.290;2022-11-18T10:32:11;0.20;77.60
73955;DHT22;62306;52.516;13.290;2022-11-18T10:35:21;0.30;78.00
73955;DHT22;62306;52.516;13.290;2022-11-18T10:38:16;0.30;78.30
73955;DHT22;62306;52.516;13.290;2022-11-18T10:40:57;0.30;78.20
73955;DHT22;62306;52.516;13.290;2022-11-18T10:43:48;0.20;77.40
73955;DHT22;62306;52.516;13.290;2022-11-18T10:46:21;0.30;78.10
73955;DHT22;62306;52.516;13.290;2022-11-18T10:49:19;0.30;78.00
73955;DHT22;62306;52.516;13.290;2022-11-18T10:52:14;0.40;77.70
73955;DHT22;62306;52.516;13.290;2022-11-18T10:54:42;0.60;77.10
73955;DHT22;62306;52.516;13.290;2022-11-18T10:57:17;0.50;76.60
73955;DHT22;62306;52.516;13.290;2022-11-18T10:59:53;0.50;77.60
73955;DHT22;62306;52.516;13.290;2022-11-18T11:06:30;0.60;77.10
73955;DHT22;62306;52.516;13.290;2022-11-18T11:09:01;0.80;75.90
73955;DHT22;62306;52.516;13.290;2022-11-18T11:11:31;0.60;75.40
73955;DHT22;62306;52.516;13.290;2022-11-18T11:14:14;0.60;76.30
73955;DHT22;62306;52.516;13.290;2022-11-18T11:16:48;0.60;76.50
73955;DHT22;62306;52.516;13.290;2022-11-18T11:19:28;0.60;76.40
73955;DHT22;62306;52.516;13.290;2022-11-18T11:22:08;0.60;76.30
73955;DHT22;62306;52.516;13.290;2022-11-18T11:25:17;0.70;76.20
73955;DHT22;62306;52.516;13.290;2022-11-18T11:27:51;0.70;76.80
73955;DHT22;62306;52.516;13.290;2022-11-18T11:30:45;0.70;76.80
73955;DHT22;62306;52.516;13.290;2022-11-18T11:33:35;0.60;77.40
73955;DHT22;62306;52.516;13.290;2022-11-18T11:36:26;0.60;77.10
73955;DHT22;62306;52.516;13.290;2022-11-18T11:39:33;0.70;76.50
73955;DHT22;62306;52.516;13.290;2022-11-18T11:42:24;0.70;77.00
73955;DHT22;62306;52.516;13.290;2022-11-18T11:45:09;0.80;77.10
73955;DHT22;62306;52.516;13.290;2022-11-18T11:50:45;0.90;76.90
73955;DHT22;62306;52.516;13.290;2022-11-18T11:53:43;0.90;76.70
73955;DHT22;62306;52.516;13.290;2022-11-18T11:56:29;0.90;77.10
73955;DHT22;62306;52.516;13.290;2022-11-18T11:59:11;1.10;76.70
73955;DHT22;62306;52.516;13.290;2022-11-18T12:01:51;1.10;76.10
73955;DHT22;62306;52.516;13.290;2022-11-18T12:04:36;1.00;76.00
73955;DHT22;62306;52.516;13.290;2022-11-18T12:07:48;1.00;76.60
73955;DHT22;62306;52.516;13.290;2022-11-18T12:10:27;0.90;74.90
73955;DHT22;62306;52.516;13.290;2022-11-18T12:13:10;0.90;75.40
73955;DHT22;62306;52.516;13.290;2022-11-18T12:16:02;1.00;74.90
73955;DHT22;62306;52.516;13.290;2022-11-18T12:18:42;1.00;75.20
73955;DHT22;62306;52.516;13.290;2022-11-18T12:24:35;1.20;74.00
73955;DHT22;62306;52.516;13.290;2022-11-18T12:27:12;1.30;73.20
73955;DHT22;62306;52.516;13.290;2022-11-18T12:29:51;1.40;73.10
73955;DHT22;62306;52.516;13.290;2022-11-18T12:32:43;1.30;72.60
73955;DHT22;62306;52.516;13.290;2022-11-18T12:35:42;1.00;72.30
73955;DHT22;62306;52.516;13.290;2022-11-18T12:38:28;1.00;72.20
73955;DHT22;62306;52.516;13.290;2022-11-18T12:40:57;1.00;72.10
73955;DHT22;62306;52.516;13.290;2022-11-18T12:44:05;1.10;72.30
73955;DHT22;62306;52.516;13.290;2022-11-18T12:46:53;1.20;71.60
73955;DHT22;62306;52.516;13.290;2022-11-18T12:52:52;1.20;71.10
73955;DHT22;62306;52.516;13.290;2022-11-18T12:55:30;1.20;71.40
73955;DHT22;62306;52.516;13.290;2022-11-18T12:58:02;1.10;70.90
73955;DHT22;62306;52.516;13.290;2022-11-18T13:00:34;1.00;71.50
73955;DHT22;62306;52.516;13.290;2022-11-18T13:03:24;0.90;71.60
73955;DHT22;62306;52.516;13.290;2022-11-18T13:06:22;0.90;71.30
73955;DHT22;62306;52.516;13.290;2022-11-18T13:09:03;0.90;71.50
73955;DHT22;62306;52.516;13.290;2022-11-18T13:11:42;1.00;72.40
73955;DHT22;62306;52.516;13.290;2022-11-18T13:14:38;1.10;71.30
73955;DHT22;62306;52.516;13.290;2022-11-18T13:17:43;1.10;70.70
73955;DHT22;62306;52.516;13.290;2022-11-18T13:20:25;0.90;71.10
73955;DHT22;62306;52.516;13.290;2022-11-18T13:23:00;1.00;71.20
73955;DHT22;62306;52.516;13.290;2022-11-18T13:26:03;1.20;70.70
73955;DHT22;62306;52.516;13.290;2022-11-18T13:28:39;1.30;70.30
73955;DHT22;62306;52.516;13.290;2022-11-18T13:31:19;1.40;69.70
73955;DHT22;62306;52.516;13.290;2022-11-18T13:34:16;1.40;68.90
73955;DHT22;62306;52.516;13.290;2022-11-18T13:36:46;1.40;69.30
73955;DHT22;62306;52.516;13.290;2022-11-18T13:39:19;1.40;68.70
73955;DHT22;62306;52.516;13.290;2022-11-18T13:41:58;1.30;69.50
73955;DHT22;62306;52.516;13.290;2022-11-18T13:44:27;1.30;69.40
73955;DHT22;62306;52.516;13.290;2022-11-18T13:47:03;1.20;68.40
73955;DHT22;62306;52.516;13.290;2022-11-18T13:50:10;1.10;69.00
73955;DHT22;62306;52.516;13.290;2022-11-18T13:52:43;1.00;69.30
73955;DHT22;62306;52.516;13.290;2022-11-18T13:55:20;1.00;69.70
73955;DHT22;62306;52.516;13.290;2022-11-18T13:58:04;0.90;70.70
73955;DHT22;62306;52.516;13.290;2022-11-18T14:00:34;0.90;70.90
73955;DHT22;62306;52.516;13.290;2022-11-18T14:03:19;0.90;70.70
73955;DHT22;62306;52.516;13.290;2022-11-18T14:05:54;1.00;70.50
73955;DHT22;62306;52.516;13.290;2022-11-18T14:08:25;1.00;70.50
73955;DHT22;62306;52.516;13.290;2022-11-18T14:10:53;1.00;70.40
73955;DHT22;62306;52.516;13.290;2022-11-18T14:13:25;1.00;69.90
73955;DHT22;62306;52.516;13.290;2022-11-18T14:15:54;1.00;68.70
73955;DHT22;62306;52.516;13.290;2022-11-18T14:18:31;0.90;69.30
73955;DHT22;62306;52.516;13.290;2022-11-18T14:21:01;0.90;68.90
73955;DHT22;62306;52.516;13.290;2022-11-18T14:23:33;0.90;69.40
73955;DHT22;62306;52.516;13.290;2022-11-18T14:26:06;0.90;69.60
73955;DHT22;62306;52.516;13.290;2022-11-18T14:28:36;0.90;69.50
73955;DHT22;62306;52.516;13.290;2022-11-18T14:31:08;0.90;69.50
73955;DHT22;62306;52.516;13.290;2022-11-18T14:34:10;0.80;69.80
73955;DHT22;62306;52.516;13.290;2022-11-18T14:36:44;0.80;70.00
73955;DHT22;62306;52.516;13.290;2022-11-18T14:39:25;0.80;70.50
73955;DHT22;62306;52.516;13.290;2022-11-18T14:41:53;0.70;70.70
73955;DHT22;62306;52.516;13.290;2022-11-18T14:44:23;0.70;69.70
73955;DHT22;62306;52.516;13.290;2022-11-18T14:46:53;0.70;69.20
73955;DHT22;62306;52.516;13.290;2022-11-18T14:49:26;0.70;68.50
73955;DHT22;62306;52.516;13.290;2022-11-18T14:51:56;0.70;68.60
73955;DHT22;62306;52.516;13.290;2022-11-18T14:54:24;0.60;69.10
73955;DHT22;62306;52.516;13.290;2022-11-18T14:57:05;0.60;69.30
73955;DHT22;62306;52.516;13.290;2022-11-18T14:59:36;0.60;68.80
73955;DHT22;62306;52.516;13.290;2022-11-18T15:02:04;0.60;69.40
73955;DHT22;62306;52.516;13.290;2022-11-18T15:04:33;0.50;69.20
73955;DHT22;62306;52.516;13.290;2022-11-18T15:07:04;0.50;69.70
73955;DHT22;62306;52.516;13.290;2022-11-18T15:09:32;0.50;70.50
73955;DHT22;62306;52.516;13.290;2022-11-18T15:12:09;0.50;69.90
73955;DHT22;62306;52.516;13.290;2022-11-18T15:15:20;0.50;70.20
73955;DHT22;62306;52.516;13.290;2022-11-18T15:18:00;0.50;70.30
73955;DHT22;62306;52.516;13.290;2022-11-18T15:20:28;0.50;69.80
73955;DHT22;62306;52.516;13.290;2022-11-18T15:22:55;0.50;70.60
73955;DHT22;62306;52.516;13.290;2022-11-18T15:25:22;0.40;70.80
73955;DHT22;62306;52.516;13.290;2022-11-18T15:27:49;0.50;70.70
73955;DHT22;62306;52.516;13.290;2022-11-18T15:30:16;0.40;70.70
73955;DHT22;62306;52.516;13.290;2022-11-18T15:32:43;0.40;70.70
73955;DHT22;62306;52.516;13.290;2022-11-18T15:35:11;0.40;70.90
73955;DHT22;62306;52.516;13.290;2022-11-18T15:37:40;0.40;70.80
73955;DHT22;62306;52.516;13.290;2022-11-18T15:40:07;0.40;71.00
73955;DHT22;62306;52.516;13.290;2022-11-18T15:42:36;0.40;71.30
73955;DHT22;62306;52.516;13.290;2022-11-18T15:45:04;0.30;71.20
73955;DHT22;62306;52.516;13.290;2022-11-18T15:47:31;0.30;70.50
73955;DHT22;62306;52.516;13.290;2022-11-18T15:49:58;0.30;70.70
73955;DHT22;62306;52.516;13.290;2022-11-18T15:52:25;0.30;71.10
73955;DHT22;62306;52.516;13.290;2022-11-18T15:54:54;0.30;71.50
73955;DHT22;62306;52.516;13.290;2022-11-18T15:57:21;0.30;71.60
73955;DHT22;62306;52.516;13.290;2022-11-18T15:59:48;0.20;71.50
73955;DHT22;62306;52.516;13.290;2022-11-18T16:02:15;0.20;71.20
73955;DHT22;62306;52.516;13.290;2022-11-18T16:04:42;0.30;71.30
73955;DHT22;62306;52.516;13.290;2022-11-18T16:07:09;0.20;71.50
73955;DHT22;62306;52.516;13.290;2022-11-18T16:09:36;0.30;71.20
73955;DHT22;62306;52.516;13.290;2022-11-18T16:12:21;0.20;71.40
73955;DHT22;62306;52.516;13.290;2022-11-18T16:15:06;0.20;71.60
73955;DHT22;62306;52.516;13.290;2022-11-18T16:17:51;0.20;71.80
73955;DHT22;62306;52.516;13.290;2022-11-18T16:20:18;0.10;72.00
73955;DHT22;62306;52.516;13.290;2022-11-18T16:22:45;0.10;72.10
73955;DHT22;62306;52.516;13.290;2022-11-18T16:25:22;0.10;71.60
73955;DHT22;62306;52.516;13.290;2022-11-18T16:27:53;0.10;72.70
73955;DHT22;62306;52.516;13.290;2022-11-18T16:30:23;0.10;72.00
73955;DHT22;62306;52.516;13.290;2022-11-18T16:33:08;0.10;72.40
73955;DHT22;62306;52.516;13.290;2022-11-18T16:35:45;0.00;72.20
73955;DHT22;62306;52.516;13.290;2022-11-18T16:38:20;0.10;72.50
73955;DHT22;62306;52.516;13.290;2022-11-18T16:40:54;0.10;72.10
73955;DHT22;62306;52.516;13.290;2022-11-18T16:43:23;0.00;72.60